Weatherford, Oklahoma
Current Conditions -  °F | °C
As of 6:55 AM on Wednesday 26 Nov 2014 (Local Time) from KOJA Reporting Station
Clear Clear  
Wind Chill: 28°   Ceiling: Unl
Heat Index: 36°   Visibility: 10mi
Dew Point: 30°   Wind: 10mph
Humidity: 81%   Direction: 330°NNW
Pressure: 30.09"   Gusts: NA
Location:  35.53°N, 98.71°W
Report Text: KOJA 261255Z AUTO 33009KT 10SM CLR 02/M01 A3009 RMK AO2
Loading
Personal Weather Stations






























Interactive Weather Map New forecast layout! Learn more

10-Day Weather Forecast

Advertisements
Track Severe Weather on mobile